createdAt,value
2019-02-12T00:00:32.074Z,12.80
2019-02-12T00:03:00.392Z,12.70
2019-02-12T00:05:28.664Z,12.53
2019-02-12T00:07:56.929Z,11.43
2019-02-12T00:10:25.246Z,11.50
2019-02-12T00:12:53.596Z,11.57
2019-02-12T00:15:23.516Z,12.10
2019-02-12T00:17:51.850Z,12.00
2019-02-12T00:20:20.105Z,10.20
2019-02-12T00:22:48.382Z,11.30
2019-02-12T00:25:16.690Z,11.33
2019-02-12T00:27:44.963Z,11.33
2019-02-12T00:30:14.363Z,12.03
2019-02-12T00:32:42.747Z,11.83
2019-02-12T00:35:11.012Z,11.93
2019-02-12T00:37:39.294Z,13.20
2019-02-12T00:40:09.336Z,13.07
2019-02-12T00:42:37.615Z,13.33
2019-02-12T00:45:08.521Z,12.80
2019-02-12T00:47:36.828Z,12.97
2019-02-12T00:50:07.946Z,12.23
2019-02-12T00:52:36.676Z,12.37
2019-02-12T00:55:07.342Z,11.23
2019-02-12T00:57:35.621Z,11.90
2019-02-12T01:00:09.412Z,12.40
2019-02-12T01:02:37.721Z,10.97
2019-02-12T01:05:06.003Z,12.60
2019-02-12T01:07:34.278Z,12.07
2019-02-12T01:10:02.592Z,12.83
2019-02-12T01:12:30.865Z,11.77
2019-02-12T01:15:00.192Z,11.30
2019-02-12T01:17:28.536Z,11.43
2019-02-12T01:19:56.761Z,11.57
2019-02-12T01:22:25.097Z,10.63
2019-02-12T01:24:53.427Z,10.23
2019-02-12T01:27:21.695Z,10.47
2019-02-12T01:29:50.045Z,10.40
2019-02-12T01:32:21.625Z,9.87
2019-02-12T01:34:49.883Z,9.90
2019-02-12T01:37:18.159Z,9.50
2019-02-12T01:39:46.469Z,8.53
2019-02-12T01:42:14.803Z,9.40
2019-02-12T01:44:43.104Z,9.80
2019-02-12T01:47:11.413Z,8.80
2019-02-12T01:49:39.774Z,8.63
2019-02-12T01:52:08.054Z,9.83
2019-02-12T01:54:41.308Z,9.43
2019-02-12T01:57:09.587Z,9.10
2019-02-12T01:59:37.863Z,10.40
2019-02-12T02:02:06.170Z,9.80
2019-02-12T02:04:34.435Z,9.87
2019-02-12T02:07:02.714Z,10.33
2019-02-12T02:09:31.008Z,9.97
2019-02-12T02:11:59.282Z,8.60
2019-02-12T02:14:27.545Z,9.87
2019-02-12T02:16:56.674Z,10.30
2019-02-12T02:19:24.952Z,10.37
2019-02-12T02:21:53.227Z,10.13
2019-02-12T02:24:21.550Z,9.73
2019-02-12T02:26:49.814Z,9.87
2019-02-12T02:29:18.095Z,9.13
2019-02-12T02:31:46.394Z,9.30
2019-02-12T02:34:14.674Z,9.93
2019-02-12T02:36:42.942Z,10.17
2019-02-12T02:39:11.260Z,10.03
2019-02-12T02:41:39.524Z,10.43
2019-02-12T02:44:07.799Z,10.20
2019-02-12T02:46:36.126Z,9.60
2019-02-12T02:49:04.448Z,9.53
2019-02-12T02:51:34.359Z,9.73
2019-02-12T02:54:02.676Z,9.67
2019-02-12T02:56:30.928Z,9.67
2019-02-12T02:58:59.199Z,9.93
2019-02-12T03:01:27.498Z,9.07
2019-02-12T03:03:55.762Z,8.73
2019-02-12T03:06:24.025Z,8.60
2019-02-12T03:08:52.323Z,8.60
2019-02-12T03:11:20.582Z,8.67
2019-02-12T03:13:48.851Z,8.17
2019-02-12T03:16:17.157Z,7.33
2019-02-12T03:18:45.448Z,7.70
2019-02-12T03:21:13.733Z,7.00
2019-02-12T03:23:42.037Z,6.83
2019-02-12T03:26:10.293Z,5.90
2019-02-12T03:28:38.574Z,6.50
2019-02-12T03:31:06.870Z,6.03
2019-02-12T03:33:35.138Z,5.27
2019-02-12T03:36:03.415Z,5.50
2019-02-12T03:38:31.713Z,5.70
2019-02-12T03:40:59.994Z,6.00
2019-02-12T03:43:28.265Z,5.87
2019-02-12T03:45:56.565Z,5.17
2019-02-12T03:48:24.921Z,5.57
2019-02-12T03:50:53.184Z,5.60
2019-02-12T03:53:22.497Z,5.27
2019-02-12T03:55:50.779Z,5.50
2019-02-12T03:58:19.043Z,5.10
2019-02-12T04:00:47.339Z,5.43
2019-02-12T04:03:15.608Z,6.40
2019-02-12T04:05:43.905Z,5.80
2019-02-12T04:08:12.203Z,5.63
2019-02-12T04:10:40.478Z,6.00
2019-02-12T04:13:08.746Z,5.43
2019-02-12T04:15:37.143Z,5.90
2019-02-12T04:18:05.438Z,5.40
2019-02-12T04:20:34.705Z,5.90
2019-02-12T04:23:03.011Z,6.17
2019-02-12T04:25:31.276Z,6.00
2019-02-12T04:27:59.544Z,5.73
2019-02-12T04:30:27.936Z,5.20
2019-02-12T04:32:56.185Z,5.40
2019-02-12T04:35:24.433Z,5.00
2019-02-12T04:37:52.743Z,5.03
2019-02-12T04:40:21.005Z,4.93
2019-02-12T04:42:49.269Z,5.07
2019-02-12T04:45:17.571Z,5.17
2019-02-12T04:47:45.838Z,4.70
2019-02-12T04:50:15.236Z,5.57
2019-02-12T04:52:43.525Z,4.97
2019-02-12T04:55:12.254Z,4.50
2019-02-12T04:57:40.516Z,5.00
2019-02-12T05:00:11.940Z,4.60
2019-02-12T05:02:40.277Z,4.90
2019-02-12T05:05:10.315Z,5.27
2019-02-12T05:07:38.587Z,4.93
2019-02-12T05:10:21.962Z,5.17
2019-02-12T05:12:50.271Z,5.10
2019-02-12T05:15:18.537Z,5.00
2019-02-12T05:17:46.802Z,4.83
2019-02-12T05:20:15.412Z,4.90
2019-02-12T05:22:44.030Z,4.77
2019-02-12T05:25:12.470Z,4.87
2019-02-12T05:27:40.882Z,5.60
2019-02-12T05:30:13.683Z,5.67
2019-02-12T05:32:41.943Z,5.97
2019-02-12T05:35:10.242Z,5.27
2019-02-12T05:37:38.520Z,5.47
2019-02-12T05:40:09.358Z,5.50
2019-02-12T05:42:37.645Z,5.20
2019-02-12T05:45:11.206Z,5.27
2019-02-12T05:47:39.537Z,4.83
2019-02-12T05:50:16.761Z,5.23
2019-02-12T05:52:54.028Z,5.40
2019-02-12T05:55:15.040Z,5.20
2019-02-12T05:57:43.427Z,5.70
2019-02-12T06:00:20.857Z,5.47
2019-02-12T06:02:49.166Z,5.50
2019-02-12T06:05:25.875Z,5.57
2019-02-12T06:07:54.184Z,5.60
2019-02-12T06:10:22.669Z,4.93
2019-02-12T06:12:50.937Z,5.03
2019-02-12T06:15:19.251Z,5.90
2019-02-12T06:17:47.519Z,4.93
2019-02-12T06:20:15.789Z,6.23
2019-02-12T06:22:44.125Z,5.40
2019-02-12T06:25:12.526Z,5.87
2019-02-12T06:27:40.752Z,6.00
2019-02-12T06:30:10.515Z,6.10
2019-02-12T06:32:38.794Z,6.17
2019-02-12T06:35:09.692Z,5.97
2019-02-12T06:37:41.398Z,6.10
2019-02-12T06:40:11.124Z,6.03
2019-02-12T06:42:39.408Z,5.30
2019-02-12T06:45:10.355Z,5.20
2019-02-12T06:47:38.623Z,5.23
2019-02-12T06:50:09.938Z,6.20
2019-02-12T06:52:38.234Z,5.07
2019-02-12T06:55:08.350Z,5.57
2019-02-12T06:57:36.949Z,5.17
2019-02-12T07:00:11.146Z,5.30
2019-02-12T07:03:16.880Z,5.00
2019-02-12T07:05:51.422Z,5.43
2019-02-12T07:08:39.372Z,5.10
2019-02-12T07:11:16.647Z,4.70
2019-02-12T07:13:59.945Z,5.37
2019-02-12T07:16:49.210Z,5.57
2019-02-12T07:19:20.732Z,5.20
2019-02-12T07:22:04.039Z,4.73
2019-02-12T07:24:44.961Z,5.00
2019-02-12T07:27:22.651Z,4.30
2019-02-12T07:29:54.202Z,4.77
2019-02-12T07:32:28.244Z,5.63
2019-02-12T07:35:22.855Z,4.13
2019-02-12T07:37:57.174Z,4.40
2019-02-12T07:40:29.302Z,4.30
2019-02-12T07:43:06.584Z,4.50
2019-02-12T07:45:38.120Z,4.53
2019-02-12T07:48:24.465Z,5.53
2019-02-12T07:51:24.730Z,5.00
2019-02-12T07:54:08.236Z,4.90
2019-02-12T07:56:48.753Z,4.37
2019-02-12T07:59:44.475Z,4.37
2019-02-12T08:02:33.944Z,4.40
2019-02-12T08:05:20.728Z,4.73
2019-02-12T08:08:14.941Z,5.03
2019-02-12T08:11:21.406Z,4.20
2019-02-12T08:13:52.965Z,4.40
2019-02-12T08:16:27.205Z,5.17
2019-02-12T08:19:01.813Z,5.37
2019-02-12T08:21:39.066Z,5.23
2019-02-12T08:24:28.805Z,4.80
2019-02-12T08:27:00.381Z,4.40
2019-02-12T08:29:41.369Z,4.53
2019-02-12T08:32:26.217Z,4.43
2019-02-12T08:35:14.112Z,4.43
2019-02-12T08:37:54.461Z,5.00
2019-02-12T08:40:28.782Z,4.57
2019-02-12T08:43:12.024Z,4.70
2019-02-12T08:46:03.293Z,4.00
2019-02-12T08:48:43.814Z,4.67
2019-02-12T08:51:24.162Z,4.53
2019-02-12T08:54:01.338Z,5.10
2019-02-12T08:56:44.670Z,5.20
2019-02-12T08:59:22.280Z,4.00
2019-02-12T09:02:05.722Z,5.50
2019-02-12T09:04:54.671Z,4.50
2019-02-12T09:07:34.829Z,5.10
2019-02-12T09:10:20.477Z,4.77
2019-02-12T09:13:00.694Z,4.40
2019-02-12T09:15:50.300Z,6.30
2019-02-12T09:18:27.368Z,4.50
2019-02-12T09:21:28.814Z,6.50
2019-02-12T09:24:22.883Z,4.27
2019-02-12T09:27:09.419Z,4.90
2019-02-12T09:29:55.620Z,4.83
2019-02-12T09:32:47.630Z,4.30
2019-02-12T09:35:24.952Z,5.20
2019-02-12T09:37:59.285Z,4.80
2019-02-12T09:40:39.512Z,5.00
2019-02-12T09:43:39.676Z,6.37
2019-02-12T09:46:13.950Z,6.53
2019-02-12T09:49:02.409Z,5.77
2019-02-12T09:51:56.833Z,4.70
2019-02-12T09:54:30.056Z,5.20
2019-02-12T09:57:21.342Z,5.10
2019-02-12T10:00:16.188Z,4.97
2019-02-12T10:03:10.440Z,6.33
2019-02-12T10:05:44.810Z,4.60
2019-02-12T10:08:39.450Z,5.20
2019-02-12T10:11:16.773Z,5.37
2019-02-12T10:13:48.548Z,6.30
2019-02-12T10:16:31.822Z,5.50
2019-02-12T10:19:08.022Z,4.97
2019-02-12T10:21:51.391Z,5.93
2019-02-12T10:24:36.999Z,6.17
2019-02-12T10:27:13.950Z,5.70
2019-02-12T10:30:00.429Z,6.27
2019-02-12T10:32:28.026Z,8.57
2019-02-12T10:34:57.128Z,5.87
2019-02-12T10:37:25.579Z,5.63
2019-02-12T10:39:53.877Z,6.30
2019-02-12T10:42:23.785Z,6.77
2019-02-12T10:44:52.055Z,5.70
2019-02-12T10:47:25.270Z,6.43
2019-02-12T10:49:55.170Z,6.17
2019-02-12T10:52:25.081Z,5.43
2019-02-12T10:54:56.635Z,4.93
2019-02-12T10:57:24.916Z,5.67
2019-02-12T10:59:54.823Z,5.37
2019-02-12T11:02:24.198Z,6.00
2019-02-12T11:04:54.124Z,6.23
2019-02-12T11:07:25.010Z,6.77
2019-02-12T11:09:54.194Z,6.00
2019-02-12T11:12:22.466Z,5.87
2019-02-12T11:14:50.738Z,5.37
2019-02-12T11:17:24.682Z,5.70
2019-02-12T11:19:56.225Z,5.07
2019-02-12T11:22:26.139Z,4.47
2019-02-12T11:24:56.109Z,5.60
2019-02-12T11:27:24.591Z,5.77
2019-02-12T11:29:52.880Z,5.77
2019-02-12T11:32:21.188Z,5.70
2019-02-12T11:34:53.748Z,5.13
2019-02-12T11:37:22.026Z,4.77
2019-02-12T11:39:51.999Z,5.23
2019-02-12T11:42:25.012Z,5.43
2019-02-12T11:44:54.316Z,5.93
2019-02-12T11:47:24.346Z,5.23
2019-02-12T11:49:53.740Z,4.10
2019-02-12T11:52:22.012Z,4.57
2019-02-12T11:54:51.955Z,4.77
2019-02-12T11:57:23.040Z,4.50
2019-02-12T11:59:52.384Z,4.60
2019-02-12T12:02:22.570Z,5.17
2019-02-12T12:04:52.470Z,4.97
2019-02-12T12:07:20.736Z,5.27
2019-02-12T12:09:49.038Z,5.10
2019-02-12T12:12:19.806Z,4.60
2019-02-12T12:14:48.502Z,5.30
2019-02-12T12:17:18.708Z,5.30
2019-02-12T12:19:47.675Z,6.07
2019-02-12T12:22:21.056Z,4.77
2019-02-12T12:24:51.541Z,4.87
2019-02-12T12:27:19.366Z,4.30
2019-02-12T12:29:47.640Z,5.70
2019-02-12T12:32:15.948Z,5.00
2019-02-12T12:34:45.866Z,4.70
2019-02-12T12:37:15.534Z,4.47
2019-02-12T12:39:48.779Z,4.93
2019-02-12T12:42:17.073Z,4.30
2019-02-12T12:44:48.602Z,4.27
2019-02-12T12:47:17.581Z,4.30
2019-02-12T12:49:47.555Z,4.00
2019-02-12T12:52:19.147Z,3.97
2019-02-12T12:54:49.038Z,3.80
2019-02-12T12:57:18.999Z,3.30
2019-02-12T12:59:49.486Z,4.33
2019-02-12T13:02:18.832Z,5.53
2019-02-12T13:04:48.734Z,4.37
2019-02-12T13:07:17.025Z,4.70
2019-02-12T13:09:46.987Z,3.73
2019-02-12T13:12:17.025Z,4.43
2019-02-12T13:14:49.619Z,3.67
2019-02-12T13:17:17.932Z,4.90
2019-02-12T13:19:47.844Z,4.33
2019-02-12T13:22:17.742Z,3.13
2019-02-12T13:24:52.459Z,4.40
2019-02-12T13:27:20.813Z,4.60
2019-02-12T13:29:50.712Z,4.63
2019-02-12T13:32:20.891Z,4.07
2019-02-12T13:34:50.790Z,4.03
2019-02-12T13:37:19.135Z,4.93
2019-02-12T13:39:47.427Z,4.63
2019-02-12T13:42:16.626Z,3.80
2019-02-12T13:44:44.881Z,4.53
2019-02-12T13:47:13.200Z,4.23
2019-02-12T13:49:41.481Z,3.83
2019-02-12T13:52:09.925Z,5.20
2019-02-12T13:54:38.234Z,3.93
2019-02-12T13:57:06.602Z,4.60
2019-02-12T13:59:34.882Z,4.03
2019-02-12T14:02:03.462Z,4.00
2019-02-12T14:04:33.509Z,4.57
2019-02-12T14:07:01.852Z,5.63
2019-02-12T14:09:33.415Z,5.00
2019-02-12T14:12:06.574Z,4.03
2019-02-12T14:14:35.790Z,3.30
2019-02-12T14:17:04.166Z,4.20
2019-02-12T14:19:34.068Z,4.30
2019-02-12T14:22:02.358Z,3.90
2019-02-12T14:24:36.364Z,3.30
2019-02-12T14:27:04.653Z,3.50
2019-02-12T14:29:34.558Z,3.43
2019-02-12T14:32:02.923Z,3.70
2019-02-12T14:34:31.192Z,3.60
2019-02-12T14:36:59.462Z,3.80
2019-02-12T14:39:31.718Z,5.10
2019-02-12T14:41:59.989Z,3.23
2019-02-12T14:44:28.265Z,3.30
2019-02-12T14:46:56.585Z,3.77
2019-02-12T14:49:24.924Z,3.70
2019-02-12T14:51:53.198Z,3.80
2019-02-12T14:54:25.364Z,3.70
2019-02-12T14:56:55.273Z,3.00
2019-02-12T14:59:27.519Z,3.90
2019-02-12T15:01:59.416Z,3.80
2019-02-12T15:04:30.592Z,4.10
2019-02-12T15:07:00.542Z,4.27
2019-02-12T15:09:30.445Z,4.23
2019-02-12T15:12:00.355Z,4.77
2019-02-12T15:14:28.925Z,3.83
2019-02-12T15:16:59.695Z,3.83
2019-02-12T15:19:27.981Z,4.30
2019-02-12T15:21:58.311Z,5.30
2019-02-12T15:24:30.343Z,3.33
2019-02-12T15:27:00.259Z,10.17
2019-02-12T15:29:28.592Z,3.57
2019-02-12T15:31:58.528Z,4.37
2019-02-12T15:34:28.429Z,3.00
2019-02-12T15:37:01.071Z,3.90
2019-02-12T15:39:30.962Z,4.03
2019-02-12T15:42:01.729Z,4.33
2019-02-12T15:44:30.701Z,3.87
2019-02-12T15:47:03.590Z,4.30
2019-02-12T15:49:35.180Z,4.10
2019-02-12T15:52:06.721Z,3.83
2019-02-12T15:54:38.243Z,4.70
2019-02-12T15:57:08.190Z,4.70
2019-02-12T15:59:38.104Z,4.63
2019-02-12T16:02:06.400Z,4.73
2019-02-12T16:04:39.021Z,4.83
2019-02-12T16:07:09.000Z,5.40
2019-02-12T16:09:37.268Z,3.90
2019-02-12T16:12:11.032Z,3.80
2019-02-12T16:14:40.114Z,4.30
2019-02-12T16:17:12.372Z,3.90
2019-02-12T16:19:41.527Z,3.57
2019-02-12T16:22:11.426Z,4.40
2019-02-12T16:24:42.394Z,4.30
2019-02-12T16:27:13.985Z,3.43
2019-02-12T16:29:44.687Z,3.30
2019-02-12T16:32:12.958Z,3.13
2019-02-12T16:34:41.937Z,3.30
2019-02-12T16:37:10.220Z,3.50
2019-02-12T16:39:41.838Z,2.90
2019-02-12T16:42:11.774Z,3.67
2019-02-12T16:44:39.861Z,3.23
2019-02-12T16:47:07.989Z,3.57
2019-02-12T16:49:37.047Z,3.30
2019-02-12T16:52:08.601Z,3.40
2019-02-12T16:54:40.695Z,4.10
2019-02-12T16:57:10.668Z,2.87
2019-02-12T16:59:38.930Z,3.90
2019-02-12T17:02:07.227Z,3.80
2019-02-12T17:04:35.646Z,3.70
2019-02-12T17:07:04.015Z,3.80
2019-02-12T17:09:32.284Z,4.17
2019-02-12T17:12:00.853Z,4.23
2019-02-12T17:14:29.233Z,4.37
2019-02-12T17:17:00.194Z,4.27
2019-02-12T17:19:28.504Z,4.73
2019-02-12T17:21:59.320Z,4.57
2019-02-12T17:24:27.589Z,4.90
2019-02-12T17:26:58.258Z,5.03
2019-02-12T17:29:26.532Z,5.20
2019-02-12T17:31:54.809Z,5.80
2019-02-12T17:34:23.115Z,5.80
2019-02-12T17:36:51.378Z,6.10
2019-02-12T17:39:19.661Z,5.60
2019-02-12T17:41:50.117Z,5.30
2019-02-12T17:44:20.015Z,5.80
2019-02-12T17:46:49.938Z,5.60
2019-02-12T17:49:19.011Z,5.60
2019-02-12T17:51:48.993Z,5.37
2019-02-12T17:54:17.370Z,5.30
2019-02-12T17:56:46.554Z,5.43
2019-02-12T17:59:16.537Z,5.13
2019-02-12T18:01:46.706Z,5.47
2019-02-12T18:04:15.048Z,5.77
2019-02-12T18:06:44.094Z,5.63
2019-02-12T18:09:13.253Z,5.17
2019-02-12T18:11:44.814Z,5.80
2019-02-12T18:14:13.079Z,5.83
2019-02-12T18:16:41.355Z,5.43
2019-02-12T18:19:09.652Z,5.50
2019-02-12T18:21:38.086Z,5.90
2019-02-12T18:24:07.447Z,6.20
2019-02-12T18:26:35.949Z,6.40
2019-02-12T18:29:04.229Z,6.43
2019-02-12T18:31:32.495Z,7.13
2019-02-12T18:34:00.822Z,6.33
2019-02-12T18:36:29.107Z,6.80
2019-02-12T18:38:57.523Z,7.57
2019-02-12T18:41:25.832Z,7.10
2019-02-12T18:43:54.283Z,7.70
2019-02-12T18:46:22.567Z,7.87
2019-02-12T18:48:50.890Z,9.43
2019-02-12T18:51:19.177Z,9.33
2019-02-12T18:53:47.469Z,10.33
2019-02-12T18:56:16.014Z,9.73
2019-02-12T18:58:44.367Z,10.97
2019-02-12T19:01:12.763Z,8.47
2019-02-12T19:03:41.278Z,12.43
2019-02-12T19:06:09.558Z,10.07
2019-02-12T19:08:37.837Z,8.43
2019-02-12T19:11:06.320Z,11.17
2019-02-12T19:13:34.778Z,7.97
2019-02-12T19:16:03.057Z,9.23
2019-02-12T19:18:31.363Z,8.23
2019-02-12T19:20:59.774Z,8.40
2019-02-12T19:23:28.055Z,7.97
2019-02-12T19:25:56.407Z,7.40
2019-02-12T19:28:24.769Z,8.33
2019-02-12T19:30:53.035Z,8.27
2019-02-12T19:33:21.383Z,7.00
2019-02-12T19:35:49.669Z,7.50
2019-02-12T19:38:17.971Z,8.70
2019-02-12T19:40:46.293Z,10.73
2019-02-12T19:43:15.544Z,7.43
2019-02-12T19:45:44.027Z,8.40
2019-02-12T19:48:12.344Z,7.80
2019-02-12T19:50:40.638Z,6.97
2019-02-12T19:53:08.929Z,7.50
2019-02-12T19:55:37.251Z,7.10
2019-02-12T19:58:05.569Z,6.50
2019-02-12T20:00:33.805Z,7.10
2019-02-12T20:03:05.656Z,7.70
2019-02-12T20:05:34.001Z,7.77
2019-02-12T20:08:02.359Z,6.80
2019-02-12T20:10:30.789Z,8.60
2019-02-12T20:12:59.139Z,8.40
2019-02-12T20:15:27.494Z,8.37
2019-02-12T20:17:55.984Z,7.20
2019-02-12T20:20:24.444Z,7.73
2019-02-12T20:22:52.868Z,6.90
2019-02-12T20:25:21.180Z,7.43
2019-02-12T20:27:49.460Z,8.00
2019-02-12T20:30:18.891Z,7.70
2019-02-12T20:32:47.200Z,7.60
2019-02-12T20:35:20.240Z,8.50
2019-02-12T20:37:48.523Z,7.63
2019-02-12T20:40:16.973Z,8.80
2019-02-12T20:42:45.281Z,8.03
2019-02-12T20:45:16.051Z,8.03
2019-02-12T20:47:44.473Z,7.83
2019-02-12T20:50:14.590Z,8.30
2019-02-12T20:52:43.126Z,8.70
2019-02-12T20:55:12.604Z,9.20
2019-02-12T20:57:40.889Z,8.90
2019-02-12T21:00:20.890Z,8.93
2019-02-12T21:02:49.185Z,8.77
2019-02-12T21:05:17.557Z,8.30
2019-02-12T21:07:46.008Z,8.23
2019-02-12T21:10:17.192Z,8.30
2019-02-12T21:12:45.473Z,7.77
2019-02-12T21:15:19.792Z,8.27
2019-02-12T21:17:50.554Z,7.80
2019-02-12T21:20:18.910Z,8.17
2019-02-12T21:22:47.255Z,7.83
2019-02-12T21:25:15.615Z,7.47
2019-02-12T21:27:43.925Z,8.27
2019-02-12T21:30:18.129Z,9.47
2019-02-12T21:32:46.474Z,8.83
2019-02-12T21:35:14.781Z,8.57
2019-02-12T21:37:43.114Z,9.20
2019-02-12T21:40:14.023Z,8.70
2019-02-12T21:42:42.352Z,8.27
2019-02-12T21:45:12.813Z,8.50
2019-02-12T21:47:41.193Z,7.83
2019-02-12T21:50:31.368Z,8.17
2019-02-12T21:52:59.617Z,8.83
2019-02-12T21:55:27.976Z,9.47
2019-02-12T21:57:56.476Z,9.57
2019-02-12T22:00:24.761Z,8.63
2019-02-12T22:02:53.074Z,8.37
2019-02-12T22:05:21.387Z,7.83
2019-02-12T22:07:49.762Z,8.57
2019-02-12T22:10:21.043Z,10.10
2019-02-12T22:12:49.463Z,8.20
2019-02-12T22:15:17.754Z,8.53
2019-02-12T22:17:47.700Z,8.60
2019-02-12T22:20:20.602Z,8.87
2019-02-12T22:22:48.910Z,9.50
2019-02-12T22:25:17.237Z,8.13
2019-02-12T22:27:45.591Z,8.80
2019-02-12T22:30:21.836Z,7.93
2019-02-12T22:32:51.794Z,8.40
2019-02-12T22:35:20.183Z,8.57
2019-02-12T22:37:48.463Z,8.90
2019-02-12T22:40:17.846Z,9.60
2019-02-12T22:42:46.190Z,9.87
2019-02-12T22:45:16.307Z,9.00
2019-02-12T22:47:44.641Z,9.50
2019-02-12T22:50:13.567Z,9.40
2019-02-12T22:52:41.923Z,9.03
2019-02-12T22:55:10.872Z,9.00
2019-02-12T22:57:39.141Z,8.70
2019-02-12T23:00:26.972Z,8.90
2019-02-12T23:02:55.395Z,9.20
2019-02-12T23:05:23.669Z,9.30
2019-02-12T23:07:51.993Z,9.37
2019-02-12T23:10:20.327Z,9.70
2019-02-12T23:12:52.548Z,9.17
2019-02-12T23:15:22.383Z,9.37
2019-02-12T23:17:52.282Z,9.70
2019-02-12T23:20:26.610Z,9.37
2019-02-12T23:22:56.797Z,9.20
2019-02-12T23:25:26.705Z,9.07
2019-02-12T23:27:57.653Z,9.40
2019-02-12T23:30:25.210Z,10.30
2019-02-12T23:32:55.128Z,9.63
2019-02-12T23:35:25.144Z,9.70
2019-02-12T23:37:53.447Z,9.70
2019-02-12T23:40:21.812Z,9.23
2019-02-12T23:42:50.130Z,9.93
2019-02-12T23:45:18.434Z,9.67
2019-02-12T23:47:46.730Z,10.17
2019-02-12T23:50:15.010Z,10.50
2019-02-12T23:52:43.336Z,9.80
2019-02-12T23:55:11.628Z,10.63
2019-02-12T23:57:39.986Z,10.03
